Time;durP1;ratioP1;P1;durP2;ratioP2;P2;SDS_P1;SDS_P2;PMS_P1;PMS_P2;Temp;Humidity;BMP_temperature;BMP_pressure;BME280_temperature;BME280_humidity;BME280_pressure;Samples;Min_cycle;Max_cycle;Signal;HPM_P1;HPM_P2
2023/06/26 00:00:59;;;;;;;5.60;5.05;;;21.10;57.00;;;;;;4967695;28;20089;-69
2023/06/26 00:03:25;;;;;;;6.05;5.28;;;21.10;57.50;;;;;;4967166;28;20133;-69
2023/06/26 00:05:52;;;;;;;5.00;4.60;;;21.10;57.70;;;;;;4978501;28;20046;-69
2023/06/26 00:08:18;;;;;;;6.30;5.47;;;21.00;58.70;;;;;;4989217;28;20512;-69
2023/06/26 00:10:46;;;;;;;5.45;4.95;;;21.00;58.00;;;;;;4989505;28;20073;-69
2023/06/26 00:13:12;;;;;;;5.85;5.25;;;21.00;58.70;;;;;;4971305;28;20038;-69
2023/06/26 00:15:39;;;;;;;8.52;5.28;;;20.90;59.00;;;;;;4982458;28;20096;-69
2023/06/26 00:18:05;;;;;;;7.25;5.43;;;20.90;60.20;;;;;;4973245;28;20400;-68
2023/06/26 00:20:33;;;;;;;7.78;5.03;;;20.90;61.60;;;;;;4990693;28;20039;-69
2023/06/26 00:23:00;;;;;;;7.97;5.15;;;20.80;63.30;;;;;;4971087;28;20075;-69
2023/06/26 00:25:27;;;;;;;6.00;5.22;;;20.80;64.30;;;;;;4970694;28;20054;-70
2023/06/26 00:27:53;;;;;;;4.97;4.57;;;20.70;65.00;;;;;;4983806;28;20050;-69
2023/06/26 00:30:19;;;;;;;6.15;4.95;;;20.70;66.00;;;;;;4991147;28;20109;-68
2023/06/26 00:32:46;;;;;;;5.63;5.05;;;20.70;66.50;;;;;;4968711;28;20059;-68
2023/06/26 00:35:13;;;;;;;7.50;5.05;;;20.60;67.20;;;;;;4972475;28;20076;-69
2023/06/26 00:37:39;;;;;;;5.45;4.68;;;20.60;67.60;;;;;;4990702;28;20056;-69
2023/06/26 00:40:06;;;;;;;5.15;4.65;;;20.50;67.70;;;;;;4971512;28;20051;-69
2023/06/26 00:42:32;;;;;;;5.35;4.85;;;20.50;67.80;;;;;;4990760;28;20534;-69
2023/06/26 00:44:59;;;;;;;4.85;4.40;;;20.50;67.90;;;;;;4971080;28;20124;-69
2023/06/26 00:47:26;;;;;;;6.03;5.43;;;20.50;68.30;;;;;;4970404;28;20137;-69
2023/06/26 00:49:53;;;;;;;5.68;4.90;;;20.40;68.40;;;;;;4982314;28;20065;-69
2023/06/26 00:52:19;;;;;;;5.85;5.07;;;20.40;69.00;;;;;;4973437;28;20061;-69
2023/06/26 00:54:46;;;;;;;7.03;5.32;;;20.40;68.90;;;;;;4969053;28;20102;-69
2023/06/26 00:57:13;;;;;;;11.55;5.00;;;20.40;69.00;;;;;;4967468;28;20118;-69
2023/06/26 00:59:45;;;;;;;6.07;5.47;;;20.40;69.10;;;;;;4981131;28;20508;-69
2023/06/26 01:02:12;;;;;;;5.70;5.20;;;20.40;68.80;;;;;;4971517;28;20093;-70
2023/06/26 01:04:46;;;;;;;6.10;5.55;;;20.40;69.10;;;;;;4970045;28;20055;-69
2023/06/26 01:07:14;;;;;;;5.70;5.15;;;20.40;68.90;;;;;;4984736;28;20050;-70
2023/06/26 01:09:42;;;;;;;11.45;5.18;;;20.40;68.90;;;;;;4972540;28;20136;-69
2023/06/26 01:12:08;;;;;;;5.68;5.18;;;20.40;68.60;;;;;;4972223;28;20085;-69
2023/06/26 01:14:36;;;;;;;6.38;5.30;;;20.40;68.50;;;;;;4971200;28;20143;-69
2023/06/26 01:17:02;;;;;;;8.50;5.43;;;20.40;68.20;;;;;;4972689;28;20054;-68
2023/06/26 01:19:30;;;;;;;6.05;5.45;;;20.50;68.10;;;;;;4969899;28;20061;-68
2023/06/26 01:22:14;;;;;;;6.10;5.22;;;20.50;67.40;;;;;;4989637;28;20050;-69
2023/06/26 01:24:49;;;;;;;5.63;4.65;;;20.60;66.20;;;;;;4988578;28;20050;-68
2023/06/26 01:27:16;;;;;;;9.75;4.97;;;20.60;65.30;;;;;;4989499;28;20648;-69
2023/06/26 01:29:45;;;;;;;6.68;5.47;;;20.60;64.10;;;;;;4969340;28;20129;-69
2023/06/26 01:32:12;;;;;;;7.15;4.70;;;20.70;63.70;;;;;;4980626;28;20089;-69
2023/06/26 01:34:38;;;;;;;5.40;4.93;;;20.60;63.40;;;;;;4989432;28;20042;-68
2023/06/26 01:37:05;;;;;;;5.40;4.90;;;20.60;63.30;;;;;;4987831;28;20044;-69
2023/06/26 01:39:31;;;;;;;8.32;5.72;;;20.70;63.00;;;;;;4989635;28;20050;-69
2023/06/26 01:41:57;;;;;;;6.57;5.60;;;20.60;62.80;;;;;;4988011;28;20477;-69
2023/06/26 01:44:34;;;;;;;5.78;5.13;;;20.60;62.60;;;;;;5005638;28;20137;-69
2023/06/26 01:47:02;;;;;;;6.43;5.30;;;20.60;63.00;;;;;;4988623;28;20054;-69
2023/06/26 01:49:54;;;;;;;8.30;5.43;;;20.50;65.10;;;;;;4983229;28;20045;-69
2023/06/26 01:52:37;;;;;;;6.18;5.35;;;20.50;64.90;;;;;;4980830;28;20050;-69
2023/06/26 01:55:16;;;;;;;5.68;4.78;;;20.40;66.00;;;;;;5007029;28;20076;-69
2023/06/26 01:57:42;;;;;;;6.03;5.37;;;20.40;67.70;;;;;;5008370;28;20392;-69
2023/06/26 02:00:19;;;;;;;6.40;5.45;;;20.30;69.30;;;;;;4972586;28;20084;-69
2023/06/26 02:02:46;;;;;;;5.88;5.25;;;20.30;70.50;;;;;;4986821;28;20081;-69
2023/06/26 02:05:13;;;;;;;7.22;5.22;;;20.30;70.70;;;;;;4990705;28;20045;-69
2023/06/26 02:07:39;;;;;;;5.43;4.80;;;20.30;71.20;;;;;;4986588;28;20061;-69
2023/06/26 02:10:06;;;;;;;6.57;5.13;;;20.20;71.70;;;;;;4969552;28;20057;-69
2023/06/26 02:12:33;;;;;;;5.88;5.32;;;20.20;72.00;;;;;;4990524;28;20057;-69
2023/06/26 02:15:00;;;;;;;6.78;5.43;;;20.20;72.30;;;;;;4989682;28;20044;-69
2023/06/26 02:17:26;;;;;;;5.97;5.32;;;20.20;72.70;;;;;;5008954;28;20049;-68
2023/06/26 02:19:53;;;;;;;6.47;5.43;;;20.20;73.00;;;;;;4986238;28;20034;-69
2023/06/26 02:22:19;;;;;;;6.97;5.43;;;20.20;74.40;;;;;;4968663;28;20046;-69
2023/06/26 02:24:45;;;;;;;7.70;6.20;;;20.20;75.50;;;;;;4987938;28;20126;-68
2023/06/26 02:27:12;;;;;;;6.63;5.82;;;20.20;75.90;;;;;;5008222;28;20453;-69
2023/06/26 02:29:40;;;;;;;5.60;5.10;;;20.20;76.30;;;;;;4989557;28;20520;-69
2023/06/26 02:32:07;;;;;;;9.15;5.90;;;20.20;77.10;;;;;;4989255;28;20233;-69
2023/06/26 02:34:34;;;;;;;5.85;5.35;;;20.20;76.80;;;;;;4974237;28;20400;-69
2023/06/26 02:37:01;;;;;;;7.95;5.93;;;20.20;76.60;;;;;;4994930;28;20359;-69
2023/06/26 02:39:28;;;;;;;6.00;5.47;;;20.30;76.50;;;;;;4991117;28;20046;-69
2023/06/26 02:41:55;;;;;;;13.52;6.40;;;20.20;76.30;;;;;;4986083;28;20058;-69
2023/06/26 02:44:21;;;;;;;6.22;5.20;;;20.30;76.10;;;;;;4980417;28;20438;-69
2023/06/26 02:46:48;;;;;;;6.53;5.55;;;20.30;76.00;;;;;;4950903;28;20118;-69
2023/06/26 02:49:14;;;;;;;6.00;5.40;;;20.20;76.10;;;;;;4961434;28;20457;-68
2023/06/26 02:51:41;;;;;;;7.63;6.07;;;20.30;76.20;;;;;;4954919;28;20046;-69
2023/06/26 02:54:07;;;;;;;6.10;5.55;;;20.20;76.30;;;;;;4969752;28;20065;-69
2023/06/26 02:56:34;;;;;;;8.77;5.93;;;20.20;76.20;;;;;;4988429;28;20108;-68
2023/06/26 02:59:00;;;;;;;6.13;5.53;;;20.20;76.90;;;;;;4986215;28;20117;-68
2023/06/26 03:01:26;;;;;;;6.63;6.03;;;20.20;77.00;;;;;;4973948;28;20061;-69
2023/06/26 03:03:53;;;;;;;8.43;5.93;;;20.20;77.00;;;;;;4969530;28;20058;-69
2023/06/26 03:06:19;;;;;;;7.47;5.60;;;20.10;77.10;;;;;;4970838;28;20050;-68
2023/06/26 03:08:46;;;;;;;6.70;5.97;;;20.10;79.00;;;;;;4987761;28;20180;-68
2023/06/26 03:11:12;;;;;;;9.18;6.13;;;20.10;80.50;;;;;;4969448;28;20050;-68
2023/06/26 03:13:38;;;;;;;9.48;6.05;;;20.00;82.40;;;;;;4971235;28;20385;-68
2023/06/26 03:16:05;;;;;;;7.78;6.90;;;20.00;82.60;;;;;;4986438;28;20465;-68
2023/06/26 03:18:31;;;;;;;10.80;6.65;;;20.00;83.60;;;;;;4988361;28;20125;-68
2023/06/26 03:20:59;;;;;;;7.55;5.97;;;20.00;84.00;;;;;;4936012;28;20381;-68
2023/06/26 03:23:26;;;;;;;7.18;6.20;;;20.00;85.10;;;;;;4970985;28;20118;-68
2023/06/26 03:25:53;;;;;;;7.35;6.07;;;20.00;86.30;;;;;;4969943;28;20054;-67
2023/06/26 03:28:19;;;;;;;6.80;6.07;;;20.00;86.90;;;;;;4969874;28;20050;-68
2023/06/26 03:30:46;;;;;;;7.95;5.47;;;20.00;87.40;;;;;;4967757;28;20076;-68
2023/06/26 03:33:12;;;;;;;6.55;6.05;;;20.00;87.50;;;;;;4986043;28;20038;-67
2023/06/26 03:35:38;;;;;;;10.02;6.57;;;19.90;88.40;;;;;;4987016;28;20053;-67
2023/06/26 03:38:05;;;;;;;6.40;5.80;;;20.00;88.70;;;;;;4985968;28;20109;-67
2023/06/26 03:40:32;;;;;;;6.15;5.55;;;20.00;89.50;;;;;;4970897;28;20088;-67
2023/06/26 03:42:58;;;;;;;6.82;5.43;;;20.00;89.60;;;;;;4969918;28;20062;-66
2023/06/26 03:45:25;;;;;;;7.32;5.90;;;20.00;89.80;;;;;;4991491;28;20045;-67
2023/06/26 03:47:51;;;;;;;6.18;5.63;;;20.10;89.30;;;;;;4991535;28;20050;-67
2023/06/26 03:50:19;;;;;;;7.03;5.40;;;20.20;88.70;;;;;;4990124;28;20057;-67
2023/06/26 03:52:45;;;;;;;7.28;4.65;;;20.20;87.90;;;;;;4970999;28;20078;-66
2023/06/26 03:55:12;;;;;;;6.22;5.63;;;20.30;86.70;;;;;;4987722;28;20046;-68
2023/06/26 03:57:38;;;;;;;6.82;5.18;;;20.30;86.00;;;;;;4971519;28;20054;-67
2023/06/26 04:00:08;;;;;;;6.63;5.53;;;20.40;85.60;;;;;;4967798;28;20043;-67
2023/06/26 04:02:35;;;;;;;5.90;5.30;;;20.50;85.20;;;;;;4973738;28;20113;-67
2023/06/26 04:05:03;;;;;;;6.13;5.53;;;20.50;84.80;;;;;;4990878;28;20049;-67
2023/06/26 04:07:30;;;;;;;8.47;5.53;;;20.60;85.00;;;;;;4989981;28;20042;-67
2023/06/26 04:10:00;;;;;;;6.90;5.63;;;20.60;85.40;;;;;;4973739;28;20372;-67
2023/06/26 04:12:27;;;;;;;6.75;4.95;;;20.60;85.40;;;;;;4989053;28;20540;-67
2023/06/26 04:14:54;;;;;;;5.88;5.30;;;20.60;85.50;;;;;;4970829;28;20133;-67
2023/06/26 04:17:21;;;;;;;6.25;5.65;;;20.70;86.50;;;;;;4983698;28;20162;-67
2023/06/26 04:19:48;;;;;;;9.05;5.93;;;20.70;85.50;;;;;;4991320;28;20179;-67
2023/06/26 04:22:15;;;;;;;8.30;5.53;;;20.70;84.50;;;;;;4989918;28;20046;-67
2023/06/26 04:24:41;;;;;;;5.65;5.15;;;20.70;83.60;;;;;;4984931;28;20501;-67
2023/06/26 04:27:08;;;;;;;9.02;5.22;;;20.70;82.70;;;;;;4982503;28;20038;-67
2023/06/26 04:29:35;;;;;;;6.30;5.70;;;20.80;82.70;;;;;;4989290;28;20077;-67
2023/06/26 04:32:01;;;;;;;6.47;5.80;;;20.80;81.90;;;;;;4991094;28;20108;-67
2023/06/26 04:34:32;;;;;;;7.53;6.00;;;20.80;80.90;;;;;;4988532;28;20057;-66
2023/06/26 04:36:59;;;;;;;5.85;5.18;;;20.90;80.10;;;;;;4991149;28;20491;-67
2023/06/26 04:39:25;;;;;;;13.00;5.10;;;20.90;78.80;;;;;;4989688;28;20046;-67
2023/06/26 04:41:53;;;;;;;6.95;5.50;;;20.90;78.30;;;;;;4990260;28;20046;-67
2023/06/26 04:44:19;;;;;;;5.88;5.30;;;21.00;78.30;;;;;;4983260;28;20061;-67
2023/06/26 04:46:46;;;;;;;6.57;5.97;;;21.00;78.10;;;;;;4990081;28;20145;-67
2023/06/26 04:49:13;;;;;;;7.30;5.80;;;21.00;77.00;;;;;;5009775;28;20046;-68
2023/06/26 04:51:42;;;;;;;6.55;5.45;;;21.10;76.90;;;;;;4990998;28;20061;-67
2023/06/26 04:54:09;;;;;;;8.27;5.65;;;21.10;74.70;;;;;;5009192;28;20061;-67
2023/06/26 04:56:36;;;;;;;7.80;5.72;;;21.20;72.60;;;;;;4989537;28;20056;-66
2023/06/26 04:59:03;;;;;;;5.25;4.65;;;21.20;73.00;;;;;;5009609;28;20042;-67
2023/06/26 05:01:32;;;;;;;7.18;5.25;;;21.20;72.20;;;;;;5009417;28;20140;-67
2023/06/26 05:03:59;;;;;;;6.25;5.30;;;21.20;70.40;;;;;;5008206;28;20073;-67
2023/06/26 05:06:25;;;;;;;5.70;5.18;;;21.20;69.60;;;;;;4991938;28;20085;-70
2023/06/26 05:08:52;;;;;;;5.60;4.78;;;21.30;69.10;;;;;;5008078;28;20050;-67
2023/06/26 05:11:18;;;;;;;5.68;5.18;;;21.40;69.30;;;;;;5009512;28;20077;-67
2023/06/26 05:13:45;;;;;;;5.88;5.10;;;21.50;68.10;;;;;;5008542;28;20073;-67
2023/06/26 05:16:11;;;;;;;8.18;5.28;;;21.70;65.20;;;;;;4991336;28;20037;-68
2023/06/26 05:18:38;;;;;;;8.52;5.95;;;21.80;65.20;;;;;;5008781;28;20049;-67
2023/06/26 05:21:04;;;;;;;5.85;5.25;;;21.90;63.40;;;;;;5008762;28;20113;-68
2023/06/26 05:23:32;;;;;;;6.88;5.00;;;22.00;62.40;;;;;;4988694;28;20405;-67
2023/06/26 05:25:59;;;;;;;7.45;5.25;;;22.00;61.30;;;;;;4986710;28;20125;-67
2023/06/26 05:28:27;;;;;;;5.55;5.05;;;21.90;61.10;;;;;;4988362;28;20062;-67
2023/06/26 05:30:54;;;;;;;8.13;5.93;;;21.90;62.20;;;;;;4984964;28;20087;-68
2023/06/26 05:33:24;;;;;;;7.70;5.50;;;21.90;63.70;;;;;;5009314;28;20100;-66
2023/06/26 05:35:55;;;;;;;6.25;5.10;;;22.00;64.10;;;;;;5006346;28;20123;-68
2023/06/26 05:38:21;;;;;;;7.45;5.03;;;22.00;64.60;;;;;;5007733;28;20523;-67
2023/06/26 05:40:54;;;;;;;6.95;5.10;;;22.00;66.10;;;;;;4972816;28;20089;-67
2023/06/26 05:43:21;;;;;;;11.10;5.63;;;22.00;66.10;;;;;;5005375;28;20050;-69
2023/06/26 05:45:48;;;;;;;8.68;5.00;;;22.00;77.50;;;;;;5009566;28;20056;-67
2023/06/26 05:48:15;;;;;;;10.07;6.18;;;21.80;80.70;;;;;;5007063;28;20097;-67
2023/06/26 05:50:43;;;;;;;9.00;6.07;;;21.50;90.90;;;;;;5008756;28;20075;-68
2023/06/26 05:53:10;;;;;;;9.90;6.43;;;21.40;94.00;;;;;;4990584;28;20066;-67
2023/06/26 05:55:36;;;;;;;15.70;7.72;;;21.20;95.80;;;;;;4999876;28;20122;-68
2023/06/26 05:58:03;;;;;;;12.60;7.75;;;21.10;96.40;;;;;;4990541;28;20054;-68
2023/06/26 06:00:30;;;;;;;15.23;7.53;;;20.90;96.90;;;;;;5004928;28;20045;-69
2023/06/26 06:02:57;;;;;;;9.20;7.05;;;20.70;97.80;;;;;;5008562;28;20533;-68
2023/06/26 06:05:23;;;;;;;13.68;7.50;;;20.50;99.90;;;;;;5006682;28;20041;-69
2023/06/26 06:07:50;;;;;;;10.27;6.70;;;20.30;99.90;;;;;;4987681;28;20038;-68
2023/06/26 06:10:16;;;;;;;15.20;7.07;;;20.20;99.90;;;;;;5006374;28;20042;-68
2023/06/26 06:12:43;;;;;;;11.10;5.68;;;20.20;99.90;;;;;;5007463;28;20496;-68
2023/06/26 06:15:09;;;;;;;10.02;5.00;;;20.10;99.90;;;;;;4988243;28;20050;-68
2023/06/26 06:17:36;;;;;;;8.25;4.22;;;19.90;99.90;;;;;;5003021;28;20585;-69
2023/06/26 06:20:03;;;;;;;8.23;3.65;;;19.90;99.90;;;;;;5008442;28;20056;-66
2023/06/26 06:22:29;;;;;;;10.98;3.90;;;19.80;99.90;;;;;;4986581;28;20049;-68
2023/06/26 06:24:56;;;;;;;13.07;4.53;;;19.70;99.90;;;;;;4988181;28;20134;-67
2023/06/26 06:27:23;;;;;;;7.80;3.53;;;19.70;99.90;;;;;;5000546;28;20101;-68
2023/06/26 06:29:49;;;;;;;12.80;3.83;;;19.70;99.90;;;;;;5007560;28;20451;-68
2023/06/26 06:32:15;;;;;;;12.48;3.67;;;19.70;99.90;;;;;;5008255;28;20038;-67
2023/06/26 06:34:42;;;;;;;9.10;3.03;;;19.60;99.90;;;;;;5006330;28;20050;-69
2023/06/26 06:37:09;;;;;;;9.18;3.25;;;19.50;99.90;;;;;;4987693;28;20058;-69
2023/06/26 06:39:35;;;;;;;12.70;3.35;;;19.60;99.90;;;;;;5001407;28;20555;-67
2023/06/26 06:42:01;;;;;;;8.80;3.08;;;19.50;99.90;;;;;;4990889;28;20050;-68
2023/06/26 06:44:30;;;;;;;9.90;3.55;;;19.50;99.90;;;;;;5006154;28;20068;-68
2023/06/26 06:46:57;;;;;;;5.05;2.65;;;19.50;99.90;;;;;;5007820;28;20399;-68
2023/06/26 06:49:23;;;;;;;10.32;3.30;;;19.60;99.90;;;;;;5007511;28;20049;-68
2023/06/26 06:51:50;;;;;;;11.65;3.65;;;19.70;99.90;;;;;;4986786;28;20046;-69
2023/06/26 06:54:17;;;;;;;8.60;3.03;;;19.80;99.90;;;;;;5008071;28;20484;-68
2023/06/26 06:56:43;;;;;;;8.45;2.60;;;19.80;99.90;;;;;;4988221;28;20459;-68
2023/06/26 06:59:09;;;;;;;8.75;2.75;;;19.80;99.90;;;;;;5007829;28;20030;-68
2023/06/26 07:01:36;;;;;;;11.30;2.35;;;19.80;99.90;;;;;;4985663;28;20054;-68
2023/06/26 07:04:03;;;;;;;5.50;1.70;;;19.80;97.80;;;;;;4990471;28;20041;-69
2023/06/26 07:06:30;;;;;;;3.70;1.55;;;19.70;95.10;;;;;;5006831;28;20045;-68
2023/06/26 07:08:56;;;;;;;4.80;2.28;;;19.60;93.60;;;;;;4988432;28;20485;-69
2023/06/26 07:11:23;;;;;;;5.82;2.08;;;19.60;95.10;;;;;;5008149;28;20046;-68
2023/06/26 07:13:49;;;;;;;11.45;2.13;;;19.70;97.20;;;;;;5005962;28;20050;-68
2023/06/26 07:16:16;;;;;;;6.93;2.13;;;19.70;97.30;;;;;;5008061;28;20065;-68
2023/06/26 07:18:44;;;;;;;6.85;2.03;;;19.70;95.70;;;;;;5007794;28;20045;-68
2023/06/26 07:21:10;;;;;;;8.00;2.20;;;19.80;96.00;;;;;;4994301;28;20056;-68
2023/06/26 07:23:36;;;;;;;6.47;1.92;;;20.00;96.50;;;;;;4997952;28;20046;-68
2023/06/26 07:26:03;;;;;;;6.35;2.05;;;20.00;92.50;;;;;;5007442;28;20334;-68
2023/06/26 07:28:29;;;;;;;7.85;1.88;;;20.10;92.10;;;;;;5011757;28;20444;-68
2023/06/26 07:30:56;;;;;;;11.10;2.72;;;20.30;90.80;;;;;;4990926;28;20497;-67
2023/06/26 07:33:22;;;;;;;5.05;1.60;;;20.40;91.00;;;;;;5011689;28;20403;-69
2023/06/26 07:35:48;;;;;;;4.10;1.25;;;20.60;81.20;;;;;;5009716;28;20057;-69
2023/06/26 07:38:15;;;;;;;6.22;2.10;;;20.70;77.10;;;;;;5011449;28;20104;-68
2023/06/26 07:40:42;;;;;;;4.78;1.20;;;20.70;76.70;;;;;;5009597;28;20053;-68
2023/06/26 07:43:08;;;;;;;7.78;1.95;;;21.00;82.10;;;;;;4990507;28;20064;-68
2023/06/26 07:45:35;;;;;;;6.53;2.33;;;21.30;70.10;;;;;;4993157;28;20065;-68
2023/06/26 07:48:01;;;;;;;4.57;2.22;;;21.40;74.00;;;;;;5009641;28;20073;-70
2023/06/26 07:50:28;;;;;;;7.32;1.90;;;21.50;66.10;;;;;;5011373;28;20500;-68
2023/06/26 07:52:54;;;;;;;8.52;1.67;;;21.70;72.20;;;;;;5008243;28;20254;-69
2023/06/26 07:55:21;;;;;;;4.88;1.60;;;21.80;49.90;;;;;;4991465;28;20084;-69
2023/06/26 07:57:47;;;;;;;3.35;1.30;;;21.80;44.10;;;;;;4991345;28;20184;-68
2023/06/26 08:00:14;;;;;;;4.60;1.52;;;22.00;49.60;;;;;;4993437;28;20508;-69
2023/06/26 08:02:41;;;;;;;3.80;1.52;;;21.90;52.10;;;;;;5009330;28;20547;-68
2023/06/26 08:05:08;;;;;;;3.00;1.70;;;21.60;38.40;;;;;;5010062;28;20042;-68
2023/06/26 08:07:34;;;;;;;6.53;1.63;;;21.40;40.10;;;;;;4993341;28;20050;-69
2023/06/26 08:10:01;;;;;;;3.20;1.35;;;21.40;47.00;;;;;;4990931;28;20046;-68
2023/06/26 08:12:27;;;;;;;4.00;1.27;;;21.40;33.80;;;;;;4993368;28;20046;-69
2023/06/26 08:14:53;;;;;;;3.97;1.55;;;21.30;38.70;;;;;;4988333;28;20180;-68
2023/06/26 08:17:20;;;;;;;7.72;1.60;;;21.10;42.80;;;;;;5004033;28;20050;-68
2023/06/26 08:19:46;;;;;;;3.40;1.70;;;21.20;53.30;;;;;;5008862;28;20046;-69
2023/06/26 08:22:13;;;;;;;1.88;1.20;;;21.20;34.00;;;;;;5010377;28;20042;-69
2023/06/26 08:24:39;;;;;;;2.33;1.15;;;21.00;42.60;;;;;;4989500;28;20058;-70
2023/06/26 08:27:07;;;;;;;3.85;1.27;;;21.00;46.20;;;;;;4979535;28;20412;-69
2023/06/26 08:29:34;;;;;;;4.55;1.40;;;20.90;44.90;;;;;;5007881;28;20069;-68
2023/06/26 08:32:02;;;;;;;2.90;1.33;;;20.90;42.00;;;;;;4987909;28;20054;-68
2023/06/26 08:34:28;;;;;;;2.92;1.08;;;20.90;42.40;;;;;;4986716;28;20050;-68
2023/06/26 08:36:54;;;;;;;3.38;1.08;;;21.00;43.90;;;;;;5008942;28;20052;-68
2023/06/26 08:39:21;;;;;;;8.35;1.95;;;21.10;45.90;;;;;;5005608;28;20112;-69
2023/06/26 08:41:47;;;;;;;3.15;1.10;;;20.90;33.40;;;;;;4988488;28;20112;-69
2023/06/26 08:44:14;;;;;;;3.08;1.35;;;21.00;39.90;;;;;;4980082;28;20062;-68
2023/06/26 08:46:41;;;;;;;2.30;1.38;;;20.90;40.70;;;;;;4990053;28;20566;-69
2023/06/26 08:49:33;;;;;;;4.32;1.20;;;20.80;45.90;;;;;;4968668;28;20073;-69
2023/06/26 08:52:13;;;;;;;4.28;1.40;;;20.60;44.60;;;;;;4955135;28;20046;-69
2023/06/26 08:54:47;;;;;;;4.85;1.10;;;20.80;46.60;;;;;;4990114;28;20420;-68
2023/06/26 08:57:18;;;;;;;4.03;0.93;;;20.90;41.00;;;;;;4968807;28;20133;-67
2023/06/26 08:59:46;;;;;;;6.72;1.33;;;21.10;36.70;;;;;;4969275;28;20050;-69
2023/06/26 09:02:13;;;;;;;2.40;1.08;;;21.10;34.70;;;;;;4988592;28;20084;-69
2023/06/26 09:04:40;;;;;;;5.82;1.55;;;20.80;30.70;;;;;;4989872;28;20508;-69
2023/06/26 09:07:07;;;;;;;8.63;1.30;;;20.90;34.70;;;;;;4970499;28;20104;-68
2023/06/26 09:09:33;;;;;;;2.40;0.93;;;20.80;26.40;;;;;;4989832;28;20514;-68
2023/06/26 09:12:03;;;;;;;4.32;1.00;;;21.00;26.00;;;;;;4989525;28;20125;-68
2023/06/26 09:14:29;;;;;;;;;;;21.10;24.00;;;;;;4971478;28;20551;-68
2023/06/26 09:16:56;;;;;;;6.47;1.40;;;21.20;20.50;;;;;;4972532;28;19972;-68
2023/06/26 09:19:22;;;;;;;1.83;1.02;;;21.30;24.60;;;;;;4970954;28;20064;-68
2023/06/26 09:21:51;;;;;;;3.42;1.05;;;21.50;21.30;;;;;;4989531;28;20046;-68
2023/06/26 09:24:18;;;;;;;1.67;1.00;;;21.60;24.40;;;;;;4987971;28;20051;-68
2023/06/26 09:26:44;;;;;;;3.08;1.17;;;21.70;21.20;;;;;;4989203;28;20046;-67
2023/06/26 09:29:11;;;;;;;4.35;1.50;;;21.60;18.60;;;;;;4988390;28;20097;-67
2023/06/26 09:31:38;;;;;;;8.07;1.35;;;21.70;21.00;;;;;;4970953;28;20066;-68
2023/06/26 09:34:05;;;;;;;3.30;1.25;;;21.70;6.90;;;;;;4989814;28;20061;-67
2023/06/26 09:36:33;;;;;;;3.13;1.20;;;21.50;9.70;;;;;;4970473;28;20046;-68
2023/06/26 09:39:21;;;;;;;5.35;1.20;;;21.30;21.10;;;;;;4963143;28;20082;-68
2023/06/26 09:41:50;;;;;;;6.82;1.40;;;21.30;18.50;;;;;;4987894;28;20062;-68
2023/06/26 09:44:18;;;;;;;2.17;1.30;;;21.70;17.60;;;;;;4971748;28;20129;-68
2023/06/26 09:46:46;;;;;;;2.85;1.48;;;21.80;14.00;;;;;;4971153;28;20172;-68
2023/06/26 09:49:13;;;;;;;4.00;1.27;;;21.60;17.40;;;;;;4978453;28;20053;-68
2023/06/26 09:51:42;;;;;;;3.08;1.67;;;21.40;19.90;;;;;;4972025;28;20058;-68
2023/06/26 09:54:09;;;;;;;4.18;1.23;;;21.20;19.90;;;;;;4987169;28;20041;-67
2023/06/26 09:56:36;;;;;;;1.15;0.98;;;21.00;24.40;;;;;;4988913;28;20132;-69
2023/06/26 09:59:05;;;;;;;4.05;1.35;;;20.90;25.00;;;;;;4987645;28;20045;-68
2023/06/26 10:01:33;;;;;;;4.03;1.60;;;20.80;25.20;;;;;;4971364;28;20057;-68
2023/06/26 10:04:00;;;;;;;3.97;1.60;;;21.00;25.80;;;;;;4971405;28;20054;-68
2023/06/26 10:06:35;;;;;;;6.07;1.85;;;21.30;20.10;;;;;;4987780;28;20544;-67
2023/06/26 10:09:03;;;;;;;5.03;1.42;;;21.30;18.10;;;;;;4954445;28;20061;-68
2023/06/26 10:11:46;;;;;;;6.57;1.83;;;21.30;19.90;;;;;;4987423;28;20050;-68
2023/06/26 10:14:14;;;;;;;3.58;1.40;;;21.30;17.60;;;;;;4988607;28;20046;-67
2023/06/26 10:16:43;;;;;;;4.70;1.58;;;21.30;11.60;;;;;;4971244;28;20077;-66
2023/06/26 10:19:11;;;;;;;3.22;1.30;;;21.50;15.90;;;;;;4987151;28;20564;-68
2023/06/26 10:21:39;;;;;;;4.82;1.88;;;21.60;8.70;;;;;;4988614;28;20046;-67
2023/06/26 10:24:06;;;;;;;5.03;1.40;;;21.70;10.70;;;;;;4942769;28;20097;-68
2023/06/26 10:26:38;;;;;;;2.00;1.38;;;21.70;5.30;;;;;;4984826;28;20039;-68
2023/06/26 10:29:06;;;;;;;7.82;1.65;;;21.80;1.00;;;;;;4965727;28;20090;-67
2023/06/26 10:31:34;;;;;;;4.68;1.50;;;21.70;1.00;;;;;;4975891;28;20050;-69
2023/06/26 10:34:01;;;;;;;6.35;1.42;;;21.70;1.00;;;;;;4966770;28;20094;-68
2023/06/26 10:36:30;;;;;;;3.75;1.58;;;21.60;1.00;;;;;;4985342;28;20100;-68
2023/06/26 10:38:58;;;;;;;8.23;1.65;;;21.70;1.00;;;;;;4978867;28;20053;-68
2023/06/26 10:41:26;;;;;;;5.32;1.20;;;22.00;1.00;;;;;;4969666;28;20123;-69
2023/06/26 10:43:58;;;;;;;4.32;1.58;;;22.20;1.00;;;;;;4971020;28;20490;-68
2023/06/26 10:46:24;;;;;;;1.83;1.23;;;22.30;1.00;;;;;;4986410;28;20078;-68
2023/06/26 10:49:01;;;;;;;4.93;1.50;;;22.10;1.00;;;;;;4971064;28;20101;-67
2023/06/26 10:51:28;;;;;;;2.90;1.45;;;22.10;1.00;;;;;;4996184;28;20053;-68
2023/06/26 10:53:58;;;;;;;3.60;1.00;;;22.10;1.00;;;;;;4986165;28;20078;-68
2023/06/26 10:56:47;;;;;;;5.25;1.83;;;22.20;1.00;;;;;;4954876;28;20050;-67
2023/06/26 10:59:18;;;;;;;3.65;1.50;;;22.00;1.00;;;;;;4977630;28;20046;-67
2023/06/26 11:02:06;;;;;;;5.53;1.98;;;21.70;1.00;;;;;;4987882;28;20280;-68
2023/06/26 11:04:46;;;;;;;2.70;1.52;;;21.80;1.00;;;;;;4969991;28;20089;-68
2023/06/26 11:07:26;;;;;;;3.45;1.50;;;22.20;1.00;;;;;;4986081;28;20097;-68
2023/06/26 11:10:08;;;;;;;4.32;1.15;;;22.40;1.00;;;;;;4970753;28;20046;-68
2023/06/26 11:12:47;;;;;;;5.72;1.67;;;22.50;1.00;;;;;;4969934;28;20103;-67
2023/06/26 11:15:16;;;;;;;3.72;1.60;;;22.50;1.00;;;;;;4986490;28;20077;-68
2023/06/26 11:17:43;;;;;;;2.00;1.25;;;22.70;1.00;;;;;;4988279;28;20100;-68
2023/06/26 11:20:11;;;;;;;5.95;1.92;;;22.60;1.00;;;;;;4981307;28;20045;-68
2023/06/26 11:22:40;;;;;;;3.47;1.37;;;22.60;1.00;;;;;;4988030;28;20073;-67
2023/06/26 11:25:09;;;;;;;10.15;1.67;;;22.70;1.00;;;;;;4983733;28;20412;-68
2023/06/26 11:27:39;;;;;;;3.55;1.52;;;22.50;1.00;;;;;;4968665;28;20062;-68
2023/06/26 11:30:10;;;;;;;5.32;1.27;;;22.40;1.00;;;;;;4984502;28;20085;-68
2023/06/26 11:32:37;;;;;;;3.55;1.50;;;22.30;1.00;;;;;;4984107;28;20061;-67
2023/06/26 11:35:05;;;;;;;4.30;1.40;;;22.20;1.00;;;;;;4968259;28;20053;-68
2023/06/26 11:37:32;;;;;;;2.63;1.38;;;22.10;1.00;;;;;;4964364;28;20450;-68
2023/06/26 11:39:58;;;;;;;2.67;1.33;;;22.10;1.00;;;;;;4953703;28;20121;-69
2023/06/26 11:42:25;;;;;;;7.35;1.98;;;21.80;1.00;;;;;;4968589;28;20069;-68
2023/06/26 11:44:52;;;;;;;5.10;2.63;;;21.60;1.00;;;;;;4984944;28;20058;-67
2023/06/26 11:47:22;;;;;;;4.40;1.42;;;21.50;1.00;;;;;;5005710;28;20041;-68
2023/06/26 11:49:49;;;;;;;5.03;1.23;;;21.50;1.00;;;;;;5005828;28;20383;-68
2023/06/26 11:52:16;;;;;;;10.50;1.30;;;21.50;1.00;;;;;;4989072;28;20068;-67
2023/06/26 11:54:43;;;;;;;9.40;1.77;;;21.70;1.00;;;;;;5005340;28;20052;-68
2023/06/26 11:57:14;;;;;;;3.55;1.35;;;21.80;1.00;;;;;;5002404;28;20049;-69
2023/06/26 11:59:41;;;;;;;5.57;1.10;;;21.70;1.00;;;;;;4984715;28;20058;-67
2023/06/26 12:02:09;;;;;;;4.57;1.40;;;21.70;1.00;;;;;;5005286;28;20459;-67
2023/06/26 12:04:38;;;;;;;3.77;1.30;;;21.80;1.00;;;;;;4991282;28;20054;-67
2023/06/26 12:07:08;;;;;;;4.78;1.17;;;22.10;1.00;;;;;;4992850;28;20050;-68
2023/06/26 12:09:47;;;;;;;3.70;1.25;;;22.10;1.00;;;;;;5007711;28;20050;-68
2023/06/26 12:12:16;;;;;;;4.65;1.20;;;21.80;1.00;;;;;;5008868;28;20042;-68
2023/06/26 12:14:42;;;;;;;4.35;1.33;;;21.70;1.00;;;;;;5010881;28;20045;-68
2023/06/26 12:17:13;;;;;;;5.47;1.10;;;21.70;1.00;;;;;;5009068;28;20045;-68
2023/06/26 12:19:44;;;;;;;4.38;1.10;;;22.00;1.00;;;;;;5010098;28;20050;-68
2023/06/26 12:22:11;;;;;;;5.22;1.50;;;22.00;1.00;;;;;;5010054;28;20057;-70
2023/06/26 12:24:39;;;;;;;4.80;1.13;;;22.10;1.00;;;;;;4988793;28;20145;-70
2023/06/26 12:27:13;;;;;;;11.02;1.40;;;22.10;1.00;;;;;;5001512;28;20046;-68
2023/06/26 12:29:49;;;;;;;4.07;1.20;;;22.20;1.00;;;;;;4990318;28;20049;-68
2023/06/26 12:32:15;;;;;;;4.53;1.25;;;22.30;1.00;;;;;;4992317;28;21140;-67
2023/06/26 12:34:46;;;;;;;3.83;1.30;;;22.30;1.00;;;;;;4991388;28;20042;-68
2023/06/26 12:37:13;;;;;;;7.28;1.42;;;22.30;1.00;;;;;;5009041;28;20806;-69
2023/06/26 12:39:46;;;;;;;14.20;1.83;;;22.20;1.00;;;;;;4992200;28;20045;-68
2023/06/26 12:42:18;;;;;;;9.73;1.73;;;22.30;1.00;;;;;;4990804;28;20069;-69
2023/06/26 12:44:45;;;;;;;5.85;1.00;;;22.50;1.00;;;;;;4976077;28;20065;-69
2023/06/26 12:47:14;;;;;;;4.38;1.10;;;22.50;1.00;;;;;;4990836;28;20492;-68
2023/06/26 12:49:42;;;;;;;7.90;1.40;;;22.40;1.00;;;;;;4991905;28;20042;-69
2023/06/26 12:52:11;;;;;;;9.88;1.50;;;22.10;1.00;;;;;;4988777;28;20489;-70